createdAt,value
2019-01-18T00:00:01.736Z,97598.08
2019-01-18T00:01:11.564Z,97595.84
2019-01-18T00:02:20.960Z,97600.98
2019-01-18T00:03:28.906Z,97598.13
2019-01-18T00:04:36.486Z,97604.82
2019-01-18T00:05:44.055Z,97600.87
2019-01-18T00:06:51.562Z,97599.55
2019-01-18T00:07:58.850Z,97600.52
2019-01-18T00:09:07.748Z,97603.98
2019-01-18T00:10:15.107Z,97601.61
2019-01-18T00:11:22.925Z,97596.69
2019-01-18T00:12:30.585Z,97599.20
2019-01-18T00:13:37.961Z,97608.08
2019-01-18T00:14:45.677Z,97604.87
2019-01-18T00:15:53.544Z,97605.83
2019-01-18T00:17:01.743Z,97600.66
2019-01-18T00:18:09.546Z,97608.22
2019-01-18T00:19:17.120Z,97605.58
2019-01-18T00:20:25.114Z,97610.50
2019-01-18T00:21:33.108Z,97601.88
2019-01-18T00:22:40.949Z,97605.48
2019-01-18T00:23:48.639Z,97606.32
2019-01-18T00:24:56.258Z,97601.53
2019-01-18T00:26:03.759Z,97598.54
2019-01-18T00:27:11.396Z,97598.89
2019-01-18T00:28:19.167Z,97609.44
2019-01-18T00:29:29.757Z,97600.79
2019-01-18T00:30:36.091Z,97599.95
2019-01-18T00:31:45.465Z,97597.58
2019-01-18T00:32:53.578Z,97602.63
2019-01-18T00:34:00.970Z,97596.12
2019-01-18T00:35:08.770Z,97600.47
2019-01-18T00:36:16.445Z,97599.98
2019-01-18T00:37:24.045Z,97600.47
2019-01-18T00:38:31.738Z,97591.34
2019-01-18T00:39:39.254Z,97594.81
2019-01-18T00:40:46.806Z,97591.11
2019-01-18T00:41:54.752Z,97593.27
2019-01-18T00:43:02.436Z,97592.43
2019-01-18T00:44:11.479Z,97597.36
2019-01-18T00:45:21.076Z,97598.90
2019-01-18T00:46:28.981Z,97605.97
2019-01-18T00:47:36.810Z,97600.95
2019-01-18T00:48:44.589Z,97607.42
2019-01-18T00:49:52.315Z,97603.81
2019-01-18T00:51:00.061Z,97599.86
2019-01-18T00:52:07.734Z,97614.37
2019-01-18T00:53:15.101Z,97604.78
2019-01-18T00:54:22.811Z,97606.10
2019-01-18T00:55:30.367Z,97608.61
2019-01-18T00:56:38.157Z,97608.25
2019-01-18T00:57:45.857Z,97605.62
2019-01-18T00:58:53.772Z,97612.21
2019-01-18T01:00:01.566Z,97612.21
2019-01-18T01:01:09.247Z,97618.32
2019-01-18T01:02:16.626Z,97613.05
2019-01-18T01:03:24.229Z,97606.58
2019-01-18T01:04:32.140Z,97614.27
2019-01-18T01:05:39.755Z,97603.46
2019-01-18T01:06:47.492Z,97598.31
2019-01-18T01:07:55.183Z,97608.51
2019-01-18T01:09:02.595Z,97608.51
2019-01-18T01:10:12.380Z,97607.80
2019-01-18T01:11:20.050Z,97602.41
2019-01-18T01:12:27.980Z,97609.95
2019-01-18T01:13:35.702Z,97601.56
2019-01-18T01:14:43.426Z,97598.58
2019-01-18T01:15:50.966Z,97598.58
2019-01-18T01:16:58.741Z,97605.17
2019-01-18T01:18:06.447Z,97601.69
2019-01-18T01:19:14.471Z,97606.84
2019-01-18T01:20:23.067Z,97602.53
2019-01-18T01:21:30.635Z,97613.91
2019-01-18T01:22:38.175Z,97605.65
2019-01-18T01:23:46.083Z,97607.80
2019-01-18T01:24:53.766Z,97609.34
2019-01-18T01:26:01.446Z,97611.50
2019-01-18T01:27:08.798Z,97608.37
2019-01-18T01:28:16.439Z,97614.27
2019-01-18T01:29:24.240Z,97618.48
2019-01-18T01:30:31.967Z,97618.83
2019-01-18T01:31:39.848Z,97628.41
2019-01-18T01:32:47.466Z,97608.37
2019-01-18T01:33:54.915Z,97617.99
2019-01-18T01:35:02.380Z,97620.50
2019-01-18T01:36:09.937Z,97628.77
2019-01-18T01:37:17.538Z,97627.22
2019-01-18T01:38:25.152Z,97635.97
2019-01-18T01:39:32.748Z,97635.61
2019-01-18T01:40:40.639Z,97622.87
2019-01-18T01:41:48.707Z,97631.17
2019-01-18T01:42:56.152Z,97633.20
2019-01-18T01:44:03.783Z,97637.16
2019-01-18T01:45:13.725Z,97629.86
2019-01-18T01:46:21.704Z,97639.18
2019-01-18T01:47:29.454Z,97655.48
2019-01-18T01:48:36.898Z,97648.89
2019-01-18T01:49:44.655Z,97649.72
2019-01-18T01:50:52.610Z,97652.97
2019-01-18T01:51:59.966Z,97663.64
2019-01-18T01:53:07.521Z,97670.23
2019-01-18T01:54:15.163Z,97671.55
2019-01-18T01:55:22.931Z,97681.38
2019-01-18T01:56:30.822Z,97707.73
2019-01-18T01:57:38.432Z,97678.48
2019-01-18T01:58:46.085Z,97681.45
2019-01-18T01:59:53.657Z,97688.48
2019-01-18T02:01:01.255Z,97703.03
2019-01-18T02:02:08.871Z,97693.77
2019-01-18T02:03:16.592Z,97700.08
2019-01-18T02:04:24.002Z,97703.88
2019-01-18T02:05:31.623Z,97682.03
2019-01-18T02:06:39.341Z,97703.93
2019-01-18T02:07:47.204Z,97698.75
2019-01-18T02:08:54.926Z,97697.98
2019-01-18T02:10:02.561Z,97695.40
2019-01-18T02:11:10.062Z,97700.25
2019-01-18T02:12:17.470Z,97701.69
2019-01-18T02:13:25.533Z,97703.95
2019-01-18T02:14:33.411Z,97697.58
2019-01-18T02:15:41.013Z,97696.02
2019-01-18T02:16:48.495Z,97701.96
2019-01-18T02:17:56.021Z,97706.98
2019-01-18T02:19:03.776Z,97706.73
2019-01-18T02:20:15.260Z,97705.89
2019-01-18T02:21:22.778Z,97712.30
2019-01-18T02:22:30.496Z,97704.48
2019-01-18T02:23:38.152Z,97712.37
2019-01-18T02:24:45.632Z,97708.06
2019-01-18T02:25:53.272Z,97704.00
2019-01-18T02:27:01.043Z,97711.17
2019-01-18T02:28:08.571Z,97710.89
2019-01-18T02:29:16.445Z,97700.77
2019-01-18T02:30:28.998Z,97707.42
2019-01-18T02:31:36.651Z,97702.64
2019-01-18T02:32:44.495Z,97703.00
2019-01-18T02:33:51.966Z,97702.44
2019-01-18T02:34:59.215Z,97695.59
2019-01-18T02:36:06.906Z,97699.17
2019-01-18T02:37:14.479Z,97693.80
2019-01-18T02:38:22.289Z,97689.86
2019-01-18T02:39:29.922Z,97694.27
2019-01-18T02:40:37.748Z,97691.17
2019-01-18T02:41:45.796Z,97689.61
2019-01-18T02:42:53.430Z,97687.23
2019-01-18T02:44:01.112Z,97689.38
2019-01-18T02:45:16.477Z,97691.92
2019-01-18T02:46:24.228Z,97694.75
2019-01-18T02:47:31.649Z,97689.02
2019-01-18T02:48:39.379Z,97690.92
2019-01-18T02:49:46.831Z,97692.35
2019-01-18T02:50:54.453Z,97698.09
2019-01-18T02:52:01.789Z,97695.09
2019-01-18T02:53:09.369Z,97696.89
2019-01-18T02:54:17.016Z,97700.23
2019-01-18T02:55:28.825Z,97697.97
2019-01-18T02:56:33.628Z,97692.23
2019-01-18T02:57:41.504Z,97691.17
2019-01-18T02:58:49.078Z,97698.13
2019-01-18T03:00:04.382Z,97693.01
2019-01-18T03:01:06.082Z,97705.00
2019-01-18T03:02:13.782Z,97707.87
2019-01-18T03:03:21.171Z,97703.70
2019-01-18T03:04:28.861Z,97704.58
2019-01-18T03:05:36.673Z,97698.20
2019-01-18T03:06:45.879Z,97690.55
2019-01-18T03:07:54.157Z,97692.33
2019-01-18T03:09:02.293Z,97694.69
2019-01-18T03:10:31.300Z,97693.48
2019-01-18T03:11:39.355Z,97688.95
2019-01-18T03:12:47.200Z,97689.78
2019-01-18T03:13:55.136Z,97691.02
2019-01-18T03:15:03.060Z,97692.42
2019-01-18T03:16:10.952Z,97692.42
2019-01-18T03:17:18.690Z,97699.83
2019-01-18T03:18:26.853Z,97702.85
2019-01-18T03:19:36.788Z,97706.32
2019-01-18T03:20:45.176Z,97706.32
2019-01-18T03:21:53.003Z,97703.77
2019-01-18T03:23:00.919Z,97702.58
2019-01-18T03:24:08.727Z,97703.41
2019-01-18T03:25:21.247Z,97702.02
2019-01-18T03:26:28.771Z,97708.59
2019-01-18T03:27:36.846Z,97702.02
2019-01-18T03:28:44.799Z,97704.05
2019-01-18T03:29:52.580Z,97702.50
2019-01-18T03:31:01.763Z,97706.09
2019-01-18T03:32:09.454Z,97706.45
2019-01-18T03:33:17.937Z,97708.52
2019-01-18T03:34:26.497Z,97705.30
2019-01-18T03:35:34.380Z,97695.50
2019-01-18T03:36:42.284Z,97705.70
2019-01-18T03:37:51.125Z,97704.75
2019-01-18T03:38:59.063Z,97705.36
2019-01-18T03:40:11.012Z,97705.63
2019-01-18T03:41:18.637Z,97703.25
2019-01-18T03:42:26.702Z,97702.66
2019-01-18T03:43:34.832Z,97703.65
2019-01-18T03:44:42.793Z,97702.22
2019-01-18T03:45:50.731Z,97704.25
2019-01-18T03:46:58.642Z,97707.27
2019-01-18T03:48:06.380Z,97707.27
2019-01-18T03:49:14.061Z,97705.96
2019-01-18T03:50:24.656Z,97704.25
2019-01-18T03:51:32.565Z,97711.30
2019-01-18T03:52:40.456Z,97711.06
2019-01-18T03:53:48.119Z,97712.98
2019-01-18T03:54:56.164Z,97709.14
2019-01-18T03:56:04.401Z,97707.44
2019-01-18T03:57:12.588Z,97708.75
2019-01-18T03:58:20.561Z,97707.08
2019-01-18T03:59:28.644Z,97705.28
2019-01-18T04:00:36.261Z,97709.14
2019-01-18T04:01:44.239Z,97699.34
2019-01-18T04:02:52.225Z,97699.23
2019-01-18T04:04:00.271Z,97702.09
2019-01-18T04:05:11.028Z,97699.38
2019-01-18T04:06:19.092Z,97701.30
2019-01-18T04:07:27.308Z,97699.39
2019-01-18T04:08:35.641Z,97701.94
2019-01-18T04:09:43.569Z,97707.33
2019-01-18T04:10:51.771Z,97706.37
2019-01-18T04:11:59.715Z,97707.95
2019-01-18T04:13:07.561Z,97709.63
2019-01-18T04:14:15.415Z,97711.31
2019-01-18T04:15:25.086Z,97705.92
2019-01-18T04:16:32.983Z,97704.13
2019-01-18T04:17:40.879Z,97711.34
2019-01-18T04:18:48.680Z,97712.55
2019-01-18T04:19:56.840Z,97709.31
2019-01-18T04:21:04.974Z,97709.19
2019-01-18T04:22:12.582Z,97704.69
2019-01-18T04:23:20.406Z,97702.41
2019-01-18T04:24:28.334Z,97704.92
2019-01-18T04:25:36.403Z,97705.76
2019-01-18T04:26:44.088Z,97706.12
2019-01-18T04:27:51.953Z,97703.48
2019-01-18T04:29:00.577Z,97703.84
2019-01-18T04:30:13.193Z,97703.76
2019-01-18T04:31:20.985Z,97712.73
2019-01-18T04:32:28.665Z,97714.41
2019-01-18T04:33:36.351Z,97711.30
2019-01-18T04:34:44.051Z,97713.09
2019-01-18T04:35:51.633Z,97718.48
2019-01-18T04:36:59.933Z,97726.22
2019-01-18T04:38:07.707Z,97728.49
2019-01-18T04:39:23.281Z,97728.45
2019-01-18T04:40:31.131Z,97727.86
2019-01-18T04:41:38.925Z,97727.61
2019-01-18T04:42:46.884Z,97733.67
2019-01-18T04:43:55.095Z,97731.84
2019-01-18T04:45:02.882Z,97739.34
2019-01-18T04:46:11.000Z,97741.36
2019-01-18T04:47:19.109Z,97746.63
2019-01-18T04:48:27.063Z,97746.74
2019-01-18T04:49:34.783Z,97756.42
2019-01-18T04:50:42.685Z,97758.30
2019-01-18T04:51:50.473Z,97750.05
2019-01-18T04:52:58.039Z,97767.87
2019-01-18T04:54:05.810Z,97772.22
2019-01-18T04:55:13.601Z,97779.99
2019-01-18T04:56:21.554Z,97790.28
2019-01-18T04:57:29.261Z,97782.03
2019-01-18T04:58:37.192Z,97778.16
2019-01-18T04:59:44.896Z,97793.75
2019-01-18T05:00:53.290Z,97793.34
2019-01-18T05:02:00.986Z,97794.35
2019-01-18T05:03:09.247Z,97801.94
2019-01-18T05:04:16.770Z,97803.75
2019-01-18T05:05:24.648Z,97798.87
2019-01-18T05:06:32.313Z,97799.23
2019-01-18T05:07:40.127Z,97817.67
2019-01-18T05:08:47.821Z,97804.09
2019-01-18T05:09:55.547Z,97820.30
2019-01-18T05:11:03.407Z,97812.86
2019-01-18T05:12:11.515Z,97812.35
2019-01-18T05:13:19.742Z,97828.22
2019-01-18T05:14:27.476Z,97827.31
2019-01-18T05:15:35.676Z,97828.55
2019-01-18T05:16:43.370Z,97831.83
2019-01-18T05:17:51.278Z,97834.78
2019-01-18T05:18:59.212Z,97833.75
2019-01-18T05:20:09.709Z,97822.27
2019-01-18T05:21:17.602Z,97836.15
2019-01-18T05:22:25.576Z,97838.70
2019-01-18T05:23:33.786Z,97840.29
2019-01-18T05:24:41.374Z,97832.36
2019-01-18T05:25:49.370Z,97838.48
2019-01-18T05:26:57.484Z,97849.26
2019-01-18T05:28:05.668Z,97851.98
2019-01-18T05:29:13.496Z,97846.84
2019-01-18T05:30:27.695Z,97840.83
2019-01-18T05:31:35.479Z,97850.84
2019-01-18T05:32:43.280Z,97847.22
2019-01-18T05:33:51.345Z,97852.37
2019-01-18T05:34:59.301Z,97848.91
2019-01-18T05:36:07.154Z,97849.27
2019-01-18T05:37:15.140Z,97850.48
2019-01-18T05:38:22.935Z,97847.02
2019-01-18T05:39:30.763Z,97849.64
2019-01-18T05:40:39.738Z,97853.58
2019-01-18T05:41:47.371Z,97853.58
2019-01-18T05:42:55.001Z,97860.50
2019-01-18T05:44:02.836Z,97848.33
2019-01-18T05:45:14.298Z,97858.65
2019-01-18T05:46:22.388Z,97856.86
2019-01-18T05:47:30.162Z,97861.75
2019-01-18T05:48:38.124Z,97859.59
2019-01-18T05:49:45.760Z,97866.89
2019-01-18T05:50:53.577Z,97866.52
2019-01-18T05:52:01.604Z,97873.92
2019-01-18T05:53:09.828Z,97867.54
2019-01-18T05:54:17.377Z,97875.41
2019-01-18T05:55:25.501Z,97873.26
2019-01-18T05:56:33.298Z,97877.41
2019-01-18T05:57:41.311Z,97872.33
2019-01-18T05:58:49.194Z,97877.20
2019-01-18T05:59:57.082Z,97882.45
2019-01-18T06:01:05.452Z,97880.20
2019-01-18T06:02:13.378Z,97885.45
2019-01-18T06:03:21.402Z,97885.92
2019-01-18T06:04:28.971Z,97888.38
2019-01-18T06:05:39.866Z,97886.77
2019-01-18T06:06:47.584Z,97885.19
2019-01-18T06:07:55.698Z,97884.92
2019-01-18T06:09:04.676Z,97879.67
2019-01-18T06:10:13.578Z,97883.77
2019-01-18T06:11:21.112Z,97886.77
2019-01-18T06:12:28.810Z,97889.59
2019-01-18T06:13:36.803Z,97893.53
2019-01-18T06:14:44.941Z,97896.16
2019-01-18T06:15:52.892Z,97905.61
2019-01-18T06:17:00.886Z,97903.83
2019-01-18T06:18:09.344Z,97909.47
2019-01-18T06:19:17.266Z,97906.27
2019-01-18T06:20:25.072Z,97914.52
2019-01-18T06:21:32.670Z,97916.30
2019-01-18T06:22:40.258Z,97923.50
2019-01-18T06:23:48.110Z,97927.53
2019-01-18T06:24:55.797Z,97931.94
2019-01-18T06:26:03.657Z,97924.55
2019-01-18T06:27:11.683Z,97928.95
2019-01-18T06:28:19.565Z,97936.15
2019-01-18T06:29:27.617Z,97924.55
2019-01-18T06:30:35.813Z,97921.19
2019-01-18T06:31:43.765Z,97931.58
2019-01-18T06:32:51.719Z,97922.59
2019-01-18T06:33:59.536Z,97922.59
2019-01-18T06:35:07.781Z,97925.02
2019-01-18T06:36:16.178Z,97924.45
2019-01-18T06:37:24.166Z,97928.58
2019-01-18T06:38:32.417Z,97928.21
2019-01-18T06:39:40.450Z,97927.37
2019-01-18T06:40:49.502Z,97936.92
2019-01-18T06:41:57.414Z,97935.51
2019-01-18T06:43:05.451Z,97930.73
2019-01-18T06:44:13.638Z,97945.63
2019-01-18T06:45:28.304Z,97950.87
2019-01-18T06:46:36.169Z,97953.67
2019-01-18T06:47:43.944Z,97946.84
2019-01-18T06:48:52.282Z,97952.09
2019-01-18T06:50:00.429Z,97952.45
2019-01-18T06:51:08.413Z,97955.86
2019-01-18T06:52:16.142Z,97960.91
2019-01-18T06:53:24.560Z,97965.48
2019-01-18T06:54:32.316Z,97966.35
2019-01-18T06:55:40.388Z,97971.60
2019-01-18T06:56:48.401Z,97978.33
2019-01-18T06:57:56.482Z,97984.97
2019-01-18T06:59:04.581Z,97982.98
2019-01-18T07:00:25.879Z,97984.22
2019-01-18T07:01:33.525Z,97996.28
2019-01-18T07:02:41.817Z,97991.87
2019-01-18T07:03:49.691Z,97998.05
2019-01-18T07:04:57.555Z,98001.70
2019-01-18T07:06:05.539Z,98001.88
2019-01-18T07:07:14.051Z,98012.26
2019-01-18T07:08:22.044Z,98014.14
2019-01-18T07:09:30.166Z,98022.38
2019-01-18T07:10:38.260Z,98020.69
2019-01-18T07:11:46.045Z,98018.16
2019-01-18T07:12:54.144Z,98025.91
2019-01-18T07:14:02.170Z,98023.02
2019-01-18T07:15:12.775Z,98028.14
2019-01-18T07:16:20.713Z,98032.54
2019-01-18T07:17:28.901Z,98032.07
2019-01-18T07:18:36.890Z,98040.19
2019-01-18T07:19:45.190Z,98043.93
2019-01-18T07:20:53.019Z,98058.44
2019-01-18T07:22:00.779Z,98056.81
2019-01-18T07:23:09.037Z,98062.34
2019-01-18T07:24:16.975Z,98051.54
2019-01-18T07:25:28.030Z,98050.05
2019-01-18T07:26:36.095Z,98054.31
2019-01-18T07:27:44.037Z,98058.48
2019-01-18T07:28:52.113Z,98067.48
2019-01-18T07:30:00.414Z,98077.85
2019-01-18T07:31:08.282Z,98080.95
2019-01-18T07:32:16.490Z,98085.06
2019-01-18T07:33:24.438Z,98093.00
2019-01-18T07:34:32.713Z,98090.16
2019-01-18T07:35:40.985Z,98091.73
2019-01-18T07:36:49.200Z,98093.27
2019-01-18T07:37:57.703Z,98095.59
2019-01-18T07:39:07.955Z,98088.44
2019-01-18T07:40:15.928Z,98090.45
2019-01-18T07:41:24.161Z,98091.09
2019-01-18T07:42:31.787Z,98086.64
2019-01-18T07:43:39.823Z,98089.81
2019-01-18T07:44:47.536Z,98093.41
2019-01-18T07:45:55.744Z,98093.72
2019-01-18T07:47:03.998Z,98089.05
2019-01-18T07:48:11.944Z,98090.58
2019-01-18T07:49:20.443Z,98092.91
2019-01-18T07:50:28.459Z,98089.61
2019-01-18T07:51:36.912Z,98089.55
2019-01-18T07:52:45.340Z,98088.67
2019-01-18T07:53:53.099Z,98088.23
2019-01-18T07:55:01.196Z,98093.91
2019-01-18T07:56:09.287Z,98100.53
2019-01-18T07:57:17.387Z,98099.22
2019-01-18T07:58:26.999Z,98106.13
2019-01-18T07:59:34.781Z,98108.61
2019-01-18T08:00:42.712Z,98103.52
2019-01-18T08:01:50.892Z,98110.06
2019-01-18T08:02:58.686Z,98103.52
2019-01-18T08:04:06.507Z,98111.31
2019-01-18T08:05:15.698Z,98116.00
2019-01-18T08:06:23.896Z,98110.45
2019-01-18T08:07:32.308Z,98113.61
2019-01-18T08:08:39.884Z,98112.42
2019-01-18T08:09:48.191Z,98114.34
2019-01-18T08:10:55.941Z,98108.13
2019-01-18T08:12:03.536Z,98114.12
2019-01-18T08:13:11.715Z,98114.33
2019-01-18T08:14:20.271Z,98108.95
2019-01-18T08:15:29.401Z,98113.55
2019-01-18T08:16:37.320Z,98115.70
2019-01-18T08:17:44.891Z,98118.69
2019-01-18T08:18:53.102Z,98134.48
2019-01-18T08:20:01.500Z,98130.17
2019-01-18T08:21:09.217Z,98133.09
2019-01-18T08:22:17.060Z,98132.10
2019-01-18T08:23:25.120Z,98141.18
2019-01-18T08:24:33.551Z,98133.70
2019-01-18T08:25:41.599Z,98136.55
2019-01-18T08:26:49.968Z,98135.45
2019-01-18T08:27:57.861Z,98141.21
2019-01-18T08:29:06.050Z,98136.13
2019-01-18T08:30:26.375Z,98139.64
2019-01-18T08:31:33.960Z,98144.55
2019-01-18T08:32:41.878Z,98141.61
2019-01-18T08:33:49.637Z,98144.52
2019-01-18T08:34:57.912Z,98147.42
2019-01-18T08:36:05.776Z,98147.37
2019-01-18T08:37:13.874Z,98151.30
2019-01-18T08:38:21.614Z,98154.20
2019-01-18T08:39:29.176Z,98152.05
2019-01-18T08:40:38.654Z,98157.11
2019-01-18T08:41:46.600Z,98155.66
2019-01-18T08:42:54.321Z,98150.33
2019-01-18T08:44:02.365Z,98155.56
2019-01-18T08:45:17.673Z,98156.59
2019-01-18T08:46:25.669Z,98155.28
2019-01-18T08:47:33.411Z,98154.54
2019-01-18T08:48:41.505Z,98151.08
2019-01-18T08:49:49.136Z,98164.96
2019-01-18T08:50:57.403Z,98167.87
2019-01-18T08:52:05.539Z,98170.11
2019-01-18T08:53:13.074Z,98166.66
2019-01-18T08:54:21.483Z,98170.64
2019-01-18T08:55:28.966Z,98174.52
2019-01-18T08:56:41.868Z,98174.05
2019-01-18T08:57:50.142Z,98175.88
2019-01-18T08:58:57.796Z,98179.81
2019-01-18T09:00:13.016Z,98176.99
2019-01-18T09:01:21.522Z,98183.55
2019-01-18T09:02:29.361Z,98179.81
2019-01-18T09:03:39.150Z,98184.53
2019-01-18T09:04:47.359Z,98188.66
2019-01-18T09:05:55.626Z,98188.05
2019-01-18T09:07:03.268Z,98198.11
2019-01-18T09:08:11.284Z,98198.16
2019-01-18T09:09:19.321Z,98203.53
2019-01-18T09:10:36.443Z,98200.81
2019-01-18T09:11:44.136Z,98202.27
2019-01-18T09:12:52.060Z,98197.91
2019-01-18T09:13:59.991Z,98205.96
2019-01-18T09:15:11.306Z,98205.44
2019-01-18T09:16:20.282Z,98204.97
2019-01-18T09:17:27.946Z,98214.98
2019-01-18T09:18:35.979Z,98215.70
2019-01-18T09:19:43.840Z,98216.41
2019-01-18T09:20:51.759Z,98225.77
2019-01-18T09:21:59.514Z,98219.30
2019-01-18T09:23:07.266Z,98228.50
2019-01-18T09:24:14.997Z,98224.75
2019-01-18T09:25:22.883Z,98237.47
2019-01-18T09:26:30.721Z,98229.43
2019-01-18T09:27:38.305Z,98232.56
2019-01-18T09:28:46.082Z,98239.59
2019-01-18T09:29:53.854Z,98247.16
2019-01-18T09:31:02.206Z,98238.41
2019-01-18T09:32:09.875Z,98244.73
2019-01-18T09:33:17.642Z,98245.66
2019-01-18T09:34:25.510Z,98246.22
2019-01-18T09:35:34.470Z,98251.98
2019-01-18T09:36:42.443Z,98252.97
2019-01-18T09:37:50.269Z,98252.73
2019-01-18T09:38:58.031Z,98249.88
2019-01-18T09:40:10.624Z,98249.23
2019-01-18T09:41:18.561Z,98254.09
2019-01-18T09:42:26.474Z,98259.25
2019-01-18T09:43:34.031Z,98263.09
2019-01-18T09:44:41.688Z,98254.09
2019-01-18T09:45:49.986Z,98260.89
2019-01-18T09:46:58.480Z,98259.11
2019-01-18T09:48:06.917Z,98259.89
2019-01-18T09:49:14.599Z,98261.97
2019-01-18T09:50:33.862Z,98260.36
2019-01-18T09:51:41.521Z,98259.48
2019-01-18T09:52:49.751Z,98266.45
2019-01-18T09:53:57.305Z,98268.98
2019-01-18T09:55:07.155Z,98262.43
2019-01-18T09:56:15.600Z,98261.41
2019-01-18T09:57:23.459Z,98270.44
2019-01-18T09:58:30.994Z,98268.86
2019-01-18T09:59:38.750Z,98270.95
2019-01-18T10:00:46.343Z,98274.33
2019-01-18T10:01:54.692Z,98271.91
2019-01-18T10:03:02.748Z,98267.06
2019-01-18T10:04:10.614Z,98270.81
2019-01-18T10:05:18.956Z,98274.33
2019-01-18T10:06:26.741Z,98276.63
2019-01-18T10:07:35.116Z,98269.50
2019-01-18T10:08:43.222Z,98274.28
2019-01-18T10:09:55.479Z,98274.51
2019-01-18T10:11:03.361Z,98281.82
2019-01-18T10:12:11.233Z,98278.81
2019-01-18T10:13:18.889Z,98282.04
2019-01-18T10:14:26.506Z,98279.23
2019-01-18T10:15:38.356Z,98273.33
2019-01-18T10:16:45.763Z,98269.24
2019-01-18T10:18:00.534Z,98279.64
2019-01-18T10:19:06.450Z,98276.41
2019-01-18T10:20:17.364Z,98275.15
2019-01-18T10:21:25.667Z,98279.69
2019-01-18T10:22:33.223Z,98284.22
2019-01-18T10:23:41.090Z,98283.03
2019-01-18T10:24:48.857Z,98283.22
2019-01-18T10:25:56.681Z,98286.91
2019-01-18T10:27:04.847Z,98294.81
2019-01-18T10:28:12.574Z,98293.05
2019-01-18T10:29:20.319Z,98296.43
2019-01-18T10:30:28.613Z,98298.90
2019-01-18T10:31:36.415Z,98296.45
2019-01-18T10:32:44.454Z,98302.01
2019-01-18T10:33:52.363Z,98297.34
2019-01-18T10:35:00.237Z,98297.62
2019-01-18T10:36:07.986Z,98304.97
2019-01-18T10:37:15.842Z,98294.73
2019-01-18T10:38:24.076Z,98293.26
2019-01-18T10:39:31.616Z,98296.91
2019-01-18T10:40:39.697Z,98292.59
2019-01-18T10:41:49.572Z,98296.44
2019-01-18T10:42:57.473Z,98298.33
2019-01-18T10:44:06.042Z,98297.23
2019-01-18T10:45:16.626Z,98297.88
2019-01-18T10:46:24.325Z,98295.27
2019-01-18T10:47:32.296Z,98305.69
2019-01-18T10:48:39.810Z,98302.22
2019-01-18T10:49:47.731Z,98301.58
2019-01-18T10:50:55.671Z,98302.70
2019-01-18T10:52:03.970Z,98301.59
2019-01-18T10:53:11.817Z,98299.23
2019-01-18T10:54:19.672Z,98299.70
2019-01-18T10:55:27.768Z,98303.91
2019-01-18T10:56:36.152Z,98302.91
2019-01-18T10:57:44.320Z,98310.59
2019-01-18T10:58:52.621Z,98315.11
2019-01-18T11:00:00.296Z,98315.11
2019-01-18T11:01:08.767Z,98322.06
2019-01-18T11:02:16.903Z,98321.31
2019-01-18T11:03:24.671Z,98312.17
2019-01-18T11:04:32.837Z,98312.27
2019-01-18T11:05:40.644Z,98312.47
2019-01-18T11:06:49.580Z,98308.56
2019-01-18T11:07:58.539Z,98316.39
2019-01-18T11:09:09.252Z,98317.14
2019-01-18T11:10:17.762Z,98318.08
2019-01-18T11:11:25.916Z,98322.03
2019-01-18T11:12:33.958Z,98317.70
2019-01-18T11:13:41.662Z,98322.53
2019-01-18T11:14:49.806Z,98315.73
2019-01-18T11:15:57.646Z,98322.20
2019-01-18T11:17:05.729Z,98325.63
2019-01-18T11:18:14.195Z,98321.60
2019-01-18T11:19:23.478Z,98315.05
2019-01-18T11:20:46.190Z,98321.53
2019-01-18T11:21:54.483Z,98317.36
2019-01-18T11:23:03.340Z,98322.16
2019-01-18T11:24:12.649Z,98322.01
2019-01-18T11:25:20.575Z,98318.34
2019-01-18T11:26:28.439Z,98326.80
2019-01-18T11:27:36.484Z,98326.50
2019-01-18T11:28:44.537Z,98333.50
2019-01-18T11:29:52.559Z,98332.00
2019-01-18T11:31:01.531Z,98331.20
2019-01-18T11:32:13.711Z,98335.44
2019-01-18T11:33:19.100Z,98334.05
2019-01-18T11:34:26.875Z,98333.57
2019-01-18T11:35:34.409Z,98334.89
2019-01-18T11:36:42.335Z,98342.50
2019-01-18T11:37:50.197Z,98341.31
2019-01-18T11:38:58.616Z,98341.88
2019-01-18T11:40:10.942Z,98331.91
2019-01-18T11:41:19.054Z,98337.54
2019-01-18T11:42:27.104Z,98340.46
2019-01-18T11:43:35.095Z,98346.64
2019-01-18T11:44:43.174Z,98341.52
2019-01-18T11:45:50.828Z,98340.06
2019-01-18T11:46:58.926Z,98331.97
2019-01-18T11:48:06.603Z,98331.52
2019-01-18T11:49:14.868Z,98334.77
2019-01-18T11:50:26.332Z,98337.41
2019-01-18T11:51:34.135Z,98330.59
2019-01-18T11:52:41.967Z,98330.06
2019-01-18T11:53:49.801Z,98328.36
2019-01-18T11:54:57.973Z,98329.08
2019-01-18T11:56:05.966Z,98333.19
2019-01-18T11:57:13.726Z,98329.17
2019-01-18T11:58:21.259Z,98337.48
2019-01-18T11:59:29.543Z,98342.58
2019-01-18T12:00:45.456Z,98354.00
2019-01-18T12:01:53.099Z,98346.37
2019-01-18T12:03:00.778Z,98347.28
2019-01-18T12:04:08.655Z,98357.50
2019-01-18T12:05:17.099Z,98358.02
2019-01-18T12:06:24.937Z,98358.63
2019-01-18T12:07:32.908Z,98346.59
2019-01-18T12:08:42.011Z,98346.00
2019-01-18T12:09:49.872Z,98350.15
2019-01-18T12:10:57.608Z,98356.42
2019-01-18T12:12:05.371Z,98357.20
2019-01-18T12:13:13.410Z,98360.17
2019-01-18T12:14:21.126Z,98357.31
2019-01-18T12:15:28.801Z,98367.63
2019-01-18T12:16:36.400Z,98364.41
2019-01-18T12:17:44.708Z,98364.67
2019-01-18T12:18:52.592Z,98366.58
2019-01-18T12:20:00.586Z,98366.53
2019-01-18T12:21:08.638Z,98366.56
2019-01-18T12:22:17.300Z,98371.84
2019-01-18T12:23:25.168Z,98379.14
2019-01-18T12:24:33.776Z,98371.87
2019-01-18T12:25:41.582Z,98367.55
2019-01-18T12:26:49.474Z,98377.65
2019-01-18T12:27:57.606Z,98383.86
2019-01-18T12:29:05.313Z,98365.66
2019-01-18T12:30:26.234Z,98376.92
2019-01-18T12:31:33.834Z,98380.70
2019-01-18T12:32:41.596Z,98379.22
2019-01-18T12:33:50.003Z,98377.58
2019-01-18T12:34:58.593Z,98383.94
2019-01-18T12:36:06.326Z,98377.92
2019-01-18T12:37:14.050Z,98394.58
2019-01-18T12:38:22.204Z,98402.39
2019-01-18T12:39:29.793Z,98393.12
2019-01-18T12:40:37.464Z,98386.57
2019-01-18T12:41:45.199Z,98391.52
2019-01-18T12:42:53.209Z,98389.72
2019-01-18T12:44:01.375Z,98396.80
2019-01-18T12:45:15.734Z,98392.89
2019-01-18T12:46:24.165Z,98395.50
2019-01-18T12:47:32.049Z,98403.53
2019-01-18T12:48:39.845Z,98402.25
2019-01-18T12:49:47.516Z,98403.90
2019-01-18T12:50:55.835Z,98404.98
2019-01-18T12:52:04.047Z,98405.20
2019-01-18T12:53:12.170Z,98406.28
2019-01-18T12:54:19.870Z,98409.60
2019-01-18T12:55:27.790Z,98406.50
2019-01-18T12:56:35.912Z,98413.45
2019-01-18T12:57:43.932Z,98415.55
2019-01-18T12:58:56.641Z,98423.77
2019-01-18T13:00:05.974Z,98427.27
2019-01-18T13:01:14.176Z,98429.55
2019-01-18T13:02:22.267Z,98430.81
2019-01-18T13:03:30.029Z,98433.11
2019-01-18T13:04:37.439Z,98436.95
2019-01-18T13:05:45.817Z,98440.53
2019-01-18T13:06:53.552Z,98441.25
2019-01-18T13:08:01.447Z,98446.73
2019-01-18T13:09:09.140Z,98443.67
2019-01-18T13:10:16.939Z,98438.23
2019-01-18T13:11:25.144Z,98441.59
2019-01-18T13:12:32.581Z,98439.91
2019-01-18T13:13:40.923Z,98436.66
2019-01-18T13:14:48.967Z,98438.20
2019-01-18T13:16:04.033Z,98429.77
2019-01-18T13:17:12.075Z,98437.07
2019-01-18T13:18:19.925Z,98443.97
2019-01-18T13:19:27.706Z,98440.45
2019-01-18T13:20:35.341Z,98441.48
2019-01-18T13:21:43.884Z,98441.41